Time;durP1;ratioP1;P1;durP2;ratioP2;P2;SDS_P1;SDS_P2;PMS_P1;PMS_P2;Temp;Humidity;BMP_temperature;BMP_pressure;BME280_temperature;BME280_humidity;BME280_pressure;Samples;Min_cycle;Max_cycle;Signal;HPM_P1;HPM_P2
2022/12/27 00:00:07;;;;;;;9.10;2.72;;;4.60;99.90;;;4.58;88.45;100207.78;4960884;28;20291;-75
2022/12/27 00:02:37;;;;;;;7.38;2.15;;;4.60;99.90;;;4.41;88.92;100198.53;4962577;28;20230;-75
2022/12/27 00:05:07;;;;;;;7.60;2.15;;;4.50;99.90;;;4.39;88.28;100194.97;4959337;28;20292;-75
2022/12/27 00:07:36;;;;;;;8.05;2.20;;;4.50;99.90;;;4.29;88.55;100188.59;4962116;28;20298;-75
2022/12/27 00:10:05;;;;;;;8.05;2.22;;;4.50;99.90;;;4.31;88.66;100199.09;4966710;28;20228;-75
2022/12/27 00:12:33;;;;;;;9.27;2.60;;;4.40;99.90;;;4.21;89.73;100213.63;4960846;28;20236;-75
2022/12/27 00:15:00;;;;;;;6.57;1.98;;;4.30;99.90;;;4.14;89.63;100219.53;4966495;28;20249;-76
2022/12/27 00:17:27;;;;;;;11.07;3.03;;;4.20;99.90;;;4.08;89.78;100225.44;4963709;28;20232;-76
2022/12/27 00:19:55;;;;;;;9.15;2.53;;;4.60;99.90;;;4.02;89.57;100216.53;4966647;28;20287;-75
2022/12/27 00:22:22;;;;;;;11.85;3.13;;;4.10;99.90;;;3.88;89.94;100212.53;4964560;28;20241;-76
2022/12/27 00:24:49;;;;;;;8.93;2.45;;;4.40;99.90;;;3.74;91.17;100214.72;4962651;28;20260;-76
2022/12/27 00:27:16;;;;;;;6.45;1.90;;;3.90;99.90;;;3.85;90.93;100245.59;4966297;28;20284;-76
2022/12/27 00:29:43;;;;;;;11.35;2.97;;;4.10;99.90;;;3.79;91.54;100252.38;4962989;28;20237;-76
2022/12/27 00:32:11;;;;;;;14.93;3.75;;;4.10;99.90;;;4.07;91.33;100290.81;4961767;28;20261;-76
2022/12/27 00:34:38;;;;;;;11.45;3.03;;;4.10;99.90;;;4.26;91.24;100305.38;4962320;28;20280;-76
2022/12/27 00:37:05;;;;;;;10.60;2.90;;;4.30;99.90;;;4.02;92.01;100285.44;4967154;28;20225;-75
2022/12/27 00:39:33;;;;;;;9.55;2.60;;;4.10;99.90;;;4.06;91.83;100294.28;4966338;28;20242;-75
2022/12/27 00:42:00;;;;;;;14.15;3.53;;;4.20;99.90;;;4.07;92.26;100298.66;4967462;28;20258;-75
2022/12/27 00:44:27;;;;;;;15.68;4.05;;;4.20;99.90;;;4.12;92.08;100311.06;4956703;28;20291;-76
2022/12/27 00:46:54;;;;;;;9.93;2.58;;;4.20;99.90;;;4.10;92.59;100311.84;4963571;28;20309;-75
2022/12/27 00:49:21;;;;;;;9.55;2.47;;;4.20;99.90;;;4.24;92.30;100322.78;4967084;28;20241;-75
2022/12/27 00:51:49;;;;;;;6.70;1.90;;;4.30;99.90;;;4.10;92.42;100302.28;4966807;28;20230;-75
2022/12/27 00:54:16;;;;;;;9.60;2.58;;;;;;;3.79;93.12;100292.50;4969728;28;20667;-76
2022/12/27 00:56:43;;;;;;;7.50;2.08;;;4.00;99.90;;;3.81;93.71;100310.84;4964666;28;20268;-75
2022/12/27 00:59:11;;;;;;;3.85;1.25;;;3.90;99.90;;;3.94;93.75;100325.25;4966984;28;20232;-76
2022/12/27 01:01:38;;;;;;;7.28;1.95;;;4.00;99.90;;;3.83;93.75;100320.53;4962752;28;20228;-75
2022/12/27 01:04:06;;;;;;;7.85;2.30;;;4.00;99.90;;;3.70;94.43;100320.94;4967305;28;20228;-75
2022/12/27 01:06:34;;;;;;;9.85;2.70;;;3.80;99.90;;;3.62;94.56;100325.03;4961908;28;20233;-75
2022/12/27 01:09:03;;;;;;;7.53;2.17;;;3.80;99.90;;;3.43;95.29;100325.22;4964342;28;20261;-75
2022/12/27 01:11:31;;;;;;;8.75;2.42;;;3.60;99.90;;;3.46;95.81;100354.06;4970469;28;20240;-76
2022/12/27 01:14:02;;;;;;;8.25;2.28;;;3.60;99.90;;;3.46;96.39;100362.81;4967121;28;20237;-76
2022/12/27 01:16:30;;;;;;;6.80;1.92;;;3.60;99.90;;;3.40;96.57;100370.44;4966165;28;20291;-75
2022/12/27 01:18:58;;;;;;;8.05;2.28;;;3.50;99.90;;;3.41;97.05;100371.31;4965153;28;20239;-76
2022/12/27 01:21:29;;;;;;;6.15;1.80;;;3.50;99.90;;;3.49;97.04;100382.94;4968666;28;20225;-76
2022/12/27 01:23:57;;;;;;;10.18;2.88;;;3.60;99.90;;;3.58;97.08;100403.31;4967980;28;20260;-76
2022/12/27 01:26:25;;;;;;;10.25;2.78;;;3.70;99.90;;;3.53;97.38;100409.25;4966982;28;20233;-75
2022/12/27 01:28:52;;;;;;;7.32;2.00;;;3.70;99.90;;;3.45;97.71;100412.41;4966100;28;20261;-76
2022/12/27 01:31:24;;;;;;;8.18;2.25;;;3.60;99.90;;;3.46;97.91;100411.59;4966715;28;20225;-75
2022/12/27 01:33:57;;;;;;;9.57;2.58;;;3.60;99.90;;;3.47;98.01;100429.94;4968807;28;20693;-76
2022/12/27 01:36:27;;;;;;;9.20;2.58;;;3.60;99.90;;;3.46;98.62;100436.00;4966269;28;20225;-75
2022/12/27 01:38:55;;;;;;;13.60;3.45;;;3.60;99.90;;;3.38;98.97;100441.78;4965645;28;20244;-75
2022/12/27 01:44:38;;;;;;;9.48;2.45;;;3.50;99.90;;;3.20;100.00;100450.69;4959317;28;20701;-75
2022/12/27 01:47:17;;;;;;;6.50;1.90;;;3.30;99.90;;;3.22;100.00;100469.06;4971442;28;20316;-75
2022/12/27 01:50:04;;;;;;;6.00;1.70;;;3.50;99.90;;;3.35;100.00;100492.22;4970696;28;20245;-75
2022/12/27 01:53:10;;;;;;;10.38;2.90;;;3.40;99.90;;;3.26;100.00;100497.09;4968453;28;20253;-75
2022/12/27 01:56:02;;;;;;;9.85;2.80;;;3.40;99.90;;;3.24;100.00;100506.59;4969984;28;20316;-75
2022/12/27 01:58:48;;;;;;;10.55;2.90;;;3.40;99.90;;;3.17;100.00;100512.41;4964241;28;20238;-75
2022/12/27 02:01:21;;;;;;;8.90;2.45;;;3.60;99.90;;;3.13;100.00;100519.22;4969504;28;20229;-75
2022/12/27 02:03:56;;;;;;;6.40;1.80;;;3.50;99.90;;;3.26;100.00;100540.63;4992950;28;20276;-75
2022/12/27 02:06:23;;;;;;;6.70;2.03;;;3.40;99.90;;;3.11;100.00;100539.19;4966988;28;20248;-75
2022/12/27 02:09:13;;;;;;;7.75;2.17;;;3.20;99.90;;;2.99;100.00;100540.41;4955199;28;20228;-74
2022/12/27 02:11:50;;;;;;;6.90;1.95;;;3.20;99.90;;;2.91;100.00;100540.09;4968629;28;20304;-75
2022/12/27 02:14:44;;;;;;;7.00;1.92;;;3.10;99.90;;;3.09;100.00;100576.53;4964903;28;20330;-75
2022/12/27 02:17:27;;;;;;;6.55;1.85;;;3.20;99.90;;;3.09;100.00;100581.75;4967793;28;20244;-75
2022/12/27 02:20:15;;;;;;;5.63;1.80;;;3.30;99.90;;;3.15;100.00;100588.13;4967611;28;20233;-75
2022/12/27 02:26:26;;;;;;;7.32;2.00;;;3.20;99.90;;;3.21;100.00;100604.06;4971011;28;20325;-76
2022/12/27 02:29:28;;;;;;;4.85;1.55;;;3.30;99.90;;;3.28;100.00;100609.53;4973782;28;20275;-75
2022/12/27 02:32:19;;;;;;;7.95;2.30;;;3.30;99.90;;;3.11;100.00;100599.28;4953026;28;20669;-75
2022/12/27 02:35:07;;;;;;;6.07;1.80;;;3.20;99.90;;;3.20;100.00;100609.22;4975940;28;20253;-75
2022/12/27 02:37:48;;;;;;;9.55;2.70;;;3.20;99.90;;;3.16;100.00;100618.66;4966365;28;20233;-75
2022/12/27 02:58:55;;;;;;;16.15;4.32;;;3.20;99.90;;;3.33;100.00;100649.81;4963614;28;20612;-76
2022/12/27 03:05:15;;;;;;;9.55;2.65;;;3.30;99.90;;;3.17;100.00;100646.56;4966118;28;20292;-75
2022/12/27 03:08:03;;;;;;;6.70;1.90;;;3.20;99.90;;;3.09;100.00;100641.84;4966375;28;20221;-76
2022/12/27 03:16:54;;;;;;;8.65;2.40;;;3.30;99.90;;;3.16;100.00;100660.47;4980705;28;20275;-75
2022/12/27 03:25:27;;;;;;;6.70;1.95;;;3.30;99.90;;;3.33;100.00;100674.25;4952389;28;20257;-75
2022/12/27 03:34:31;;;;;;;7.00;1.90;;;3.70;99.90;;;3.69;100.00;100687.94;4967517;28;20240;-75
2022/12/27 03:40:23;;;;;;;8.85;2.50;;;3.80;99.90;;;3.59;100.00;100663.97;4966519;28;20240;-76
2022/12/27 03:43:09;;;;;;;6.82;1.90;;;3.80;99.90;;;3.42;100.00;100655.44;4962201;28;20316;-75
2022/12/27 03:46:33;;;;;;;9.52;2.63;;;3.60;99.90;;;3.28;100.00;100659.19;4966541;28;20257;-76
2022/12/27 03:49:26;;;;;;;8.65;2.40;;;3.50;99.90;;;3.39;100.00;100679.72;4970054;28;20233;-76
2022/12/27 03:52:06;;;;;;;7.13;2.00;;;3.50;99.90;;;3.43;100.00;100681.63;4970605;28;20229;-76
2022/12/27 03:54:38;;;;;;;7.85;2.28;;;3.50;99.90;;;3.43;100.00;100680.75;4963483;28;20253;-76
2022/12/27 03:57:13;;;;;;;9.48;2.67;;;3.50;99.90;;;3.30;100.00;100665.38;4967208;28;20260;-75
2022/12/27 03:59:40;;;;;;;7.53;2.13;;;3.40;99.90;;;3.27;100.00;100655.69;4964140;28;20269;-76
2022/12/27 04:02:08;;;;;;;7.22;2.03;;;3.40;99.90;;;3.33;100.00;100661.16;4965877;28;20275;-76
2022/12/27 04:04:36;;;;;;;10.23;2.75;;;3.40;99.90;;;3.30;100.00;100663.66;4956523;28;20225;-76
2022/12/27 04:07:05;;;;;;;6.70;1.98;;;3.40;99.90;;;3.44;100.00;100670.34;4997044;28;20260;-76
2022/12/27 04:34:42;;;;;;;5.40;1.63;;;3.50;99.90;;;3.63;100.00;100681.56;4963245;28;20244;-76
2022/12/27 04:37:16;;;;;;;7.65;2.22;;;3.70;99.90;;;3.63;100.00;100679.84;4962007;28;20225;-75
2022/12/27 04:56:19;;;;;;;7.55;2.10;;;3.80;99.90;;;3.88;100.00;100699.13;4961392;28;20300;-75
2022/12/27 05:04:17;;;;;;;5.95;1.75;;;4.10;99.90;;;4.24;100.00;100721.53;4956176;28;20242;-75
2022/12/27 05:06:44;;;;;;;5.50;1.60;;;4.30;99.90;;;4.23;100.00;100708.41;4963674;28;20307;-75
2022/12/27 05:13:58;;;;;;;6.72;1.95;;;4.40;99.90;;;4.37;100.00;100720.28;4991742;28;20226;-76
2022/12/27 05:14:46;;;;;;;3.55;1.08;;;4.40;99.90;;;4.40;100.00;100723.03;4960901;28;20229;-76
2022/12/27 05:17:13;;;;;;;5.65;1.73;;;4.60;99.90;;;4.33;100.00;100708.81;4966709;28;20240;-75
2022/12/27 05:19:40;;;;;;;7.32;2.20;;;4.40;99.90;;;4.32;100.00;100708.75;4971738;28;20260;-75
2022/12/27 05:27:39;;;;;;;9.07;2.47;;;4.40;99.90;;;4.39;100.00;100716.00;4975163;28;20233;-76
2022/12/27 05:30:07;;;;;;;7.85;2.13;;;4.40;99.90;;;4.50;100.00;100704.22;4969231;28;20233;-76
2022/12/27 05:32:34;;;;;;;7.80;2.42;;;4.50;99.90;;;4.46;100.00;100699.69;4968874;28;20701;-75
2022/12/27 05:35:01;;;;;;;6.78;1.92;;;4.60;99.90;;;4.51;99.94;100706.00;4966916;28;20271;-76
2022/12/27 05:37:28;;;;;;;2.28;0.90;;;4.70;99.90;;;4.53;99.19;100699.09;4960618;28;20233;-75
2022/12/27 05:39:55;;;;;;;5.43;1.65;;;4.60;99.90;;;4.63;98.84;100711.69;4969229;28;20748;-75
2022/12/27 05:42:22;;;;;;;4.45;1.40;;;4.70;99.90;;;4.77;98.04;100715.72;4968018;28;20312;-75
2022/12/27 05:44:49;;;;;;;8.27;2.20;;;4.80;99.90;;;4.66;98.21;100703.94;4964746;28;20380;-75
2022/12/27 05:47:16;;;;;;;7.53;2.05;;;4.70;99.90;;;4.61;97.63;100702.00;4970516;28;20283;-75
2022/12/27 05:49:43;;;;;;;12.07;3.25;;;4.70;99.90;;;4.58;97.88;100704.50;4973177;28;20255;-76
2022/12/27 05:52:10;;;;;;;6.95;1.92;;;4.70;99.90;;;4.64;97.47;100704.72;4971285;28;20760;-74
2022/12/27 05:54:37;;;;;;;6.55;1.95;;;4.70;99.90;;;4.55;97.65;100704.38;4968903;28;20260;-75
2022/12/27 05:57:04;;;;;;;7.00;1.95;;;4.70;99.90;;;4.44;98.12;100699.63;4985930;28;20233;-75
2022/12/27 05:59:31;;;;;;;5.20;1.55;;;4.60;99.90;;;4.54;97.71;100713.06;4969499;28;20249;-75
2022/12/27 06:01:58;;;;;;;6.55;1.85;;;4.60;99.90;;;4.67;96.86;100713.59;4978667;28;20228;-76
2022/12/27 06:04:26;;;;;;;7.32;2.38;;;4.80;99.90;;;4.54;97.45;100707.84;4970873;28;20235;-76
2022/12/27 06:06:53;;;;;;;4.30;1.35;;;4.60;99.90;;;4.33;97.60;100702.69;4965212;28;20258;-76
2022/12/27 06:09:20;;;;;;;7.22;2.10;;;4.50;99.90;;;4.46;97.67;100716.28;4967092;28;20238;-75
2022/12/27 06:11:47;;;;;;;6.13;1.80;;;5.00;99.90;;;4.43;97.86;100717.91;4961756;28;20288;-76
2022/12/27 06:14:14;;;;;;;5.95;1.80;;;4.50;99.90;;;4.40;97.81;100712.56;4987839;28;20241;-75
2022/12/27 06:16:41;;;;;;;6.28;1.83;;;4.60;99.90;;;4.36;98.55;100716.78;4971149;28;20252;-76
2022/12/27 06:19:08;;;;;;;7.07;2.17;;;4.40;99.90;;;4.29;99.14;100719.09;4971637;28;20706;-76
2022/12/27 06:21:35;;;;;;;11.55;3.08;;;4.40;99.90;;;4.28;99.02;100733.03;4975652;28;20240;-75
2022/12/27 06:24:03;;;;;;;9.32;2.60;;;4.40;99.90;;;4.19;99.70;100744.03;4983057;28;20276;-75
2022/12/27 06:26:30;;;;;;;6.28;1.83;;;4.30;99.90;;;4.31;99.48;100751.47;4966602;28;20237;-74
2022/12/27 06:28:58;;;;;;;7.03;2.00;;;4.40;99.90;;;4.21;99.90;100747.59;4970760;28;20237;-75
2022/12/27 06:31:27;;;;;;;5.82;1.77;;;4.30;99.90;;;4.33;99.96;100774.25;4968394;28;20229;-76
2022/12/27 06:33:55;;;;;;;6.15;1.85;;;4.40;99.90;;;4.28;100.00;100770.56;4969114;28;20337;-76
2022/12/27 06:36:29;;;;;;;4.55;1.40;;;4.40;99.90;;;4.35;100.00;100776.94;4973840;28;20241;-76
2022/12/27 06:38:57;;;;;;;5.80;1.70;;;4.40;99.90;;;4.29;100.00;100774.09;4969318;28;20229;-75
2022/12/27 06:41:25;;;;;;;8.55;2.53;;;4.40;99.90;;;4.24;100.00;100773.91;4968328;28;20241;-75
2022/12/27 06:43:57;;;;;;;7.03;2.05;;;4.80;99.90;;;4.24;100.00;100767.78;4970077;28;20458;-76
2022/12/27 06:46:24;;;;;;;10.02;2.78;;;4.70;99.90;;;4.24;100.00;100781.75;4966256;28;20233;-75
2022/12/27 06:48:52;;;;;;;9.50;2.70;;;4.30;99.90;;;4.29;100.00;100782.84;4963147;28;20269;-75
2022/12/27 06:51:20;;;;;;;11.32;3.10;;;4.40;99.90;;;4.16;100.00;100777.94;4967862;28;20241;-75
2022/12/27 06:53:48;;;;;;;6.57;1.95;;;4.30;99.90;;;4.09;100.00;100783.75;4964312;28;20708;-75
2022/12/27 06:56:18;;;;;;;6.05;1.67;;;4.40;99.90;;;4.20;100.00;100805.13;4960270;28;20229;-75
2022/12/27 06:58:48;;;;;;;8.98;2.50;;;4.20;99.90;;;3.98;100.00;100788.56;4967410;28;20248;-76
2022/12/27 07:01:19;;;;;;;8.65;2.30;;;4.10;99.90;;;4.05;100.00;100808.03;4963437;28;20239;-76
2022/12/27 07:03:56;;;;;;;12.30;3.45;;;4.20;99.90;;;3.86;100.00;100811.56;4968412;28;20241;-76
2022/12/27 07:06:27;;;;;;;11.77;3.30;;;4.00;99.90;;;3.80;100.00;100813.94;4967515;28;20240;-76
2022/12/27 07:08:56;;;;;;;8.40;2.35;;;3.90;99.90;;;3.44;100.00;100802.78;4990114;28;20272;-75
2022/12/27 07:11:24;;;;;;;6.55;1.92;;;3.70;99.90;;;3.15;100.00;100785.84;4966369;28;20284;-76
2022/12/27 07:13:54;;;;;;;6.97;1.95;;;3.40;99.90;;;3.13;100.00;100805.78;4965768;28;20216;-76
2022/12/27 07:16:25;;;;;;;7.93;2.13;;;3.40;99.90;;;2.99;100.00;100812.09;4965881;28;20230;-76
2022/12/27 07:18:55;;;;;;;6.35;1.90;;;3.10;99.90;;;2.92;100.00;100820.50;4973453;28;20284;-76
2022/12/27 07:21:26;;;;;;;5.03;1.55;;;3.10;99.90;;;2.85;100.00;100827.16;4967427;28;20579;-76
2022/12/27 07:23:54;;;;;;;5.82;1.77;;;3.10;99.90;;;2.84;100.00;100833.19;4961311;28;20229;-76
2022/12/27 07:26:28;;;;;;;7.60;2.25;;;3.00;99.90;;;2.59;100.00;100825.91;4964628;28;20232;-77
2022/12/27 07:28:59;;;;;;;7.03;1.98;;;2.80;99.90;;;2.56;100.00;100839.72;4970045;28;20259;-76
2022/12/27 07:31:30;;;;;;;3.97;1.30;;;2.70;99.90;;;2.58;100.00;100851.13;4965652;28;20247;-75
2022/12/27 07:34:01;;;;;;;2.67;0.90;;;2.70;99.90;;;2.53;100.00;100868.28;4961402;28;20232;-76
2022/12/27 07:36:36;;;;;;;4.72;1.45;;;2.70;99.90;;;2.53;100.00;100877.84;4968097;28;20648;-76
2022/12/27 07:39:05;;;;;;;5.32;1.67;;;2.60;99.90;;;2.58;100.00;100884.16;4970532;28;20311;-76
2022/12/27 07:41:32;;;;;;;5.90;1.90;;;2.70;99.90;;;2.60;100.00;100893.00;4967966;28;20646;-76
2022/12/27 07:43:59;;;;;;;5.55;1.70;;;2.70;99.90;;;2.58;100.00;100897.22;4969618;28;20243;-76
2022/12/27 07:46:27;;;;;;;3.90;1.27;;;2.80;99.90;;;2.58;100.00;100918.13;4970399;28;20797;-76
2022/12/27 07:48:56;;;;;;;4.45;1.42;;;2.70;99.90;;;2.59;100.00;100917.28;4952443;28;20241;-75
2022/12/27 07:51:25;;;;;;;4.80;1.63;;;2.70;99.90;;;2.57;100.00;100924.16;4967729;28;20225;-76
2022/12/27 07:53:52;;;;;;;6.20;1.88;;;2.80;99.90;;;2.49;100.00;100929.00;4967130;28;20232;-75
2022/12/27 07:56:24;;;;;;;4.40;1.40;;;2.60;99.90;;;2.57;100.00;100935.50;4971115;28;20256;-76
2022/12/27 07:58:55;;;;;;;7.25;2.03;;;2.70;99.90;;;2.73;100.00;100954.56;4964746;28;20229;-76
2022/12/27 08:01:25;;;;;;;7.85;2.20;;;2.90;99.90;;;2.82;100.00;100962.84;4968248;28;20240;-75
2022/12/27 08:03:53;;;;;;;5.80;1.67;;;2.90;99.90;;;2.88;100.00;100977.09;4968073;28;20221;-76
2022/12/27 08:06:23;;;;;;;3.30;1.05;;;3.00;99.90;;;2.98;100.00;100988.88;4970067;28;20307;-76
2022/12/27 08:08:51;;;;;;;2.63;0.88;;;3.10;99.90;;;3.19;100.00;101002.06;4967381;28;20236;-76
2022/12/27 08:11:19;;;;;;;4.32;1.35;;;3.10;99.90;;;3.32;100.00;101012.28;4956465;28;20236;-76
2022/12/27 08:13:47;;;;;;;4.53;1.38;;;3.30;99.90;;;3.36;100.00;101010.69;4967555;28;20230;-76
2022/12/27 08:16:21;;;;;;;6.30;1.90;;;3.50;99.90;;;3.52;100.00;101021.94;4962859;28;20253;-76
2022/12/27 08:18:48;;;;;;;8.73;2.42;;;3.50;99.90;;;3.69;100.00;101030.56;4963881;28;20375;-76
2022/12/27 08:21:15;;;;;;;3.63;1.15;;;3.60;99.90;;;3.72;100.00;101016.75;4957171;28;20249;-76
2022/12/27 08:23:42;;;;;;;2.60;0.88;;;3.80;99.90;;;3.76;100.00;101011.72;4975119;28;20224;-76
2022/12/27 08:26:10;;;;;;;7.90;2.20;;;3.80;99.90;;;3.94;100.00;101023.88;4963077;28;20292;-75
2022/12/27 08:28:46;;;;;;;15.85;4.32;;;4.00;99.90;;;4.08;100.00;101023.66;4971501;28;20295;-76
2022/12/27 08:31:13;;;;;;;3.35;1.02;;;4.10;99.90;;;4.05;100.00;101009.53;4964698;28;20232;-76
2022/12/27 08:33:41;;;;;;;3.67;1.25;;;4.50;99.90;;;4.14;100.00;101018.69;4967742;28;20260;-76
2022/12/27 08:36:11;;;;;;;7.05;2.10;;;4.20;99.90;;;4.35;100.00;101029.19;4963308;28;20362;-77
2022/12/27 08:38:58;;;;;;;10.40;2.88;;;4.40;99.90;;;4.24;100.00;101013.84;4959429;28;20233;-77
2022/12/27 08:41:26;;;;;;;7.72;2.15;;;4.40;99.90;;;4.32;100.00;101013.34;4962094;28;20240;-76
2022/12/27 08:43:53;;;;;;;7.40;2.13;;;4.40;99.90;;;4.39;100.00;101014.53;4969783;28;20241;-77
2022/12/27 08:46:20;;;;;;;9.52;2.65;;;4.70;99.90;;;4.49;100.00;101014.09;4972209;28;20228;-77
2022/12/27 08:48:48;;;;;;;4.72;1.35;;;4.60;99.90;;;4.48;100.00;101007.06;4964439;28;20237;-76
2022/12/27 08:51:17;;;;;;;5.55;1.67;;;4.50;99.90;;;4.48;100.00;101009.69;4962310;28;20222;-76
2022/12/27 08:53:57;;;;;;;8.75;2.53;;;4.60;99.90;;;4.53;100.00;100997.66;4961926;28;20313;-76
2022/12/27 08:56:24;;;;;;;7.05;2.10;;;4.60;99.90;;;4.52;100.00;100989.75;4959843;28;20259;-76
2022/12/27 08:58:51;;;;;;;2.53;0.90;;;4.60;99.90;;;4.56;100.00;101000.41;4967248;28;20233;-76
2022/12/27 09:01:19;;;;;;;2.25;0.80;;;4.60;99.90;;;4.61;100.00;101001.50;4998754;28;20232;-76
2022/12/27 09:03:47;;;;;;;7.53;2.28;;;4.70;99.90;;;4.68;100.00;101002.66;4961885;28;20225;-75
2022/12/27 09:06:19;;;;;;;6.85;2.03;;;4.70;99.90;;;4.66;100.00;100997.34;4962235;28;20221;-75
2022/12/27 09:08:49;;;;;;;7.63;2.25;;;4.70;99.90;;;4.74;100.00;101009.03;4966239;28;20323;-76
2022/12/27 09:11:25;;;;;;;6.00;1.88;;;5.00;99.90;;;4.92;100.00;101031.59;4962194;28;20270;-77
2022/12/27 09:13:52;;;;;;;10.18;3.10;;;4.90;99.90;;;5.02;100.00;101023.28;4958588;28;20233;-74
2022/12/27 09:16:23;;;;;;;7.38;2.00;;;5.10;99.90;;;5.15;100.00;101031.69;4963502;28;20236;-75
2022/12/27 09:18:54;;;;;;;4.28;1.35;;;5.20;99.90;;;5.17;100.00;101029.13;4957273;28;20248;-76
2022/12/27 09:21:25;;;;;;;5.03;1.25;;;5.30;99.90;;;5.27;100.00;101038.28;4947144;28;20221;-75
2022/12/27 09:23:59;;;;;;;7.47;1.88;;;5.40;99.90;;;5.36;100.00;101036.94;4960476;28;20232;-75
2022/12/27 09:26:29;;;;;;;14.07;2.80;;;5.40;99.90;;;5.37;100.00;101041.34;4954269;28;20229;-75
2022/12/27 09:28:58;;;;;;;8.63;2.00;;;5.40;99.90;;;5.36;100.00;101036.94;4966606;28;20305;-74
2022/12/27 09:31:31;;;;;;;23.30;5.00;;;5.50;99.90;;;5.44;100.00;101045.09;4971302;28;20233;-75
2022/12/27 09:34:09;;;;;;;19.75;3.90;;;5.50;99.90;;;5.50;100.00;101034.84;4970544;28;20235;-75
2022/12/27 09:36:43;;;;;;;8.15;2.35;;;;;;;5.64;100.00;101056.38;4971305;28;20244;-75
2022/12/27 09:39:12;;;;;;;11.90;3.33;;;4.80;99.90;;;5.69;100.00;101045.22;4967781;23;20320;-69
2022/12/27 09:42:11;;;;;;;12.52;3.95;;;5.70;99.90;;;5.87;100.00;101066.00;4922188;28;20290;-69
2022/12/27 09:45:16;;;;;;;13.93;4.05;;;5.80;99.90;;;5.94;100.00;101072.41;4926998;28;20237;-69
2022/12/27 09:47:54;;;;;;;13.32;3.95;;;5.90;99.90;;;6.01;100.00;101072.72;4945287;28;20238;-69
2022/12/27 09:50:30;;;;;;;11.10;3.22;;;6.10;99.90;;;5.94;100.00;101054.94;4954755;28;20585;-70
2022/12/27 09:53:16;;;;;;;12.20;3.55;;;6.00;99.90;;;5.99;100.00;101069.13;4941871;28;20364;-68
2022/12/27 09:55:56;;;;;;;12.75;3.78;;;6.00;99.90;;;5.92;99.80;101048.75;4916885;28;20238;-69
2022/12/27 09:58:49;;;;;;;11.95;3.92;;;6.00;99.90;;;5.99;100.00;101063.88;4923440;28;20273;-69
2022/12/27 10:01:30;;;;;;;10.50;3.08;;;6.00;99.90;;;5.97;100.00;101060.31;4943383;28;20261;-69
2022/12/27 10:03:59;;;;;;;10.65;3.00;;;6.00;99.90;;;6.01;100.00;101061.31;4949042;28;20226;-69
2022/12/27 10:06:49;;;;;;;8.15;2.70;;;6.10;99.90;;;5.99;100.00;101061.25;4921802;28;20281;-71
2022/12/27 10:09:50;;;;;;;13.32;3.90;;;6.10;99.90;;;5.86;99.46;101031.84;4960759;28;20253;-70
2022/12/27 10:12:28;;;;;;;13.73;4.47;;;6.00;99.90;;;5.93;98.88;101037.41;4961455;28;20254;-70
2022/12/27 10:15:13;;;;;;;17.88;5.75;;;6.00;99.90;;;6.16;99.31;101051.38;4948269;28;20229;-71
2022/12/27 10:18:29;;;;;;;16.88;5.35;;;6.20;99.90;;;6.29;98.53;101057.97;4957207;28;20245;-70
2022/12/27 10:21:21;;;;;;;12.18;3.60;;;6.30;99.90;;;6.31;98.03;101059.81;4911856;28;20634;-70
2022/12/27 10:24:18;;;;;;;9.48;2.88;;;6.30;99.90;;;6.24;96.80;101030.63;4962381;28;20260;-69
2022/12/27 10:26:45;;;;;;;9.30;2.83;;;6.30;99.90;;;6.28;96.99;101028.19;4934362;28;20285;-73
2022/12/27 10:29:23;;;;;;;5.43;2.00;;;6.30;99.90;;;6.42;96.74;101031.28;4946462;28;20768;-69
2022/12/27 10:31:51;;;;;;;8.77;2.70;;;6.40;99.90;;;6.43;95.71;101017.31;4923116;28;20709;-71
2022/12/27 10:34:25;;;;;;;8.30;2.88;;;6.50;99.90;;;6.56;95.05;101021.28;4914864;28;20289;-68
2022/12/27 10:36:53;;;;;;;9.90;3.10;;;6.50;99.90;;;6.74;94.75;101029.81;4952935;28;20236;-70
2022/12/27 10:39:29;;;;;;;8.48;2.72;;;6.70;99.90;;;6.65;93.90;101006.72;4942889;28;20242;-70
2022/12/27 10:42:07;;;;;;;9.90;3.03;;;6.70;99.90;;;6.79;93.21;100998.41;4931696;28;20295;-69
2022/12/27 10:44:34;;;;;;;10.13;3.28;;;6.80;99.90;;;6.86;92.88;100992.50;4940395;28;20333;-69
2022/12/27 10:47:01;;;;;;;9.02;3.03;;;6.90;99.90;;;6.91;92.97;100999.72;4920308;28;20769;-69
2022/12/27 10:49:31;;;;;;;7.43;2.30;;;6.90;99.90;;;7.01;93.15;101003.53;4940587;28;20519;-69
2022/12/27 10:52:21;;;;;;;8.95;3.08;;;6.90;99.90;;;7.07;93.01;101007.25;4936544;28;20282;-70
2022/12/27 10:54:56;;;;;;;8.43;2.85;;;7.10;99.90;;;6.92;91.76;100964.69;4930751;28;20230;-70
2022/12/27 10:57:32;;;;;;;4.93;1.88;;;7.00;99.90;;;7.14;92.26;101005.72;4957656;28;20237;-69
2022/12/27 11:00:21;;;;;;;8.65;3.03;;;7.00;99.90;;;7.01;90.80;100945.69;4947210;28;20237;-69
2022/12/27 11:02:49;;;;;;;8.98;2.83;;;7.10;99.90;;;7.13;90.52;100948.69;4932068;28;20241;-69
2022/12/27 11:05:26;;;;;;;7.35;2.60;;;7.10;99.90;;;7.11;90.07;100939.88;4961439;28;20230;-70
2022/12/27 11:07:54;;;;;;;7.40;2.72;;;7.10;99.90;;;7.04;89.96;100925.63;4935272;28;20241;-70
2022/12/27 11:10:25;;;;;;;5.40;1.80;;;7.10;99.90;;;7.03;90.08;100933.47;4926387;28;20233;-70
2022/12/27 11:13:05;;;;;;;6.68;2.20;;;7.00;99.90;;;7.10;89.65;100929.28;4935735;28;20229;-70
2022/12/27 11:15:36;;;;;;;8.95;3.03;;;7.10;99.90;;;7.07;89.73;100920.47;4934880;28;20257;-71
2022/12/27 11:18:17;;;;;;;11.43;4.32;;;7.10;99.90;;;7.06;89.59;100926.56;4929432;28;20241;-71
2022/12/27 11:20:52;;;;;;;8.70;2.67;;;7.10;99.90;;;7.13;89.43;100927.66;4931665;28;20237;-72
2022/12/27 11:23:22;;;;;;;10.27;3.35;;;7.10;99.90;;;7.25;89.63;100935.91;4928128;29;20264;-72
2022/12/27 11:25:59;;;;;;;9.63;3.42;;;7.20;99.90;;;7.09;88.99;100902.09;4917611;28;20324;-71
2022/12/27 11:28:49;;;;;;;6.30;2.15;;;7.10;99.90;;;7.25;89.10;100925.38;4934845;28;20265;-72
2022/12/27 11:31:28;;;;;;;5.00;1.85;;;7.20;99.90;;;7.33;88.73;100912.47;4932104;28;20284;-72
2022/12/27 11:34:00;;;;;;;9.10;2.92;;;7.30;99.90;;;7.15;88.76;100893.50;4943774;28;20352;-71
2022/12/27 11:36:39;;;;;;;9.95;3.20;;;7.20;99.90;;;7.35;88.06;100911.66;4929258;28;20333;-71
2022/12/27 11:39:31;;;;;;;9.05;3.15;;;7.30;99.90;;;7.06;87.63;100857.31;4931011;28;20244;-68
2022/12/27 11:41:59;;;;;;;9.75;3.30;;;7.20;99.90;;;6.80;88.42;100853.00;4946016;28;20222;-68
2022/12/27 11:44:33;;;;;;;8.27;2.85;;;6.90;99.90;;;6.73;88.77;100855.44;4928440;28;20234;-70
2022/12/27 11:47:07;;;;;;;7.68;2.38;;;6.80;99.90;;;6.73;88.58;100858.06;4947588;28;20246;-70
2022/12/27 11:50:00;;;;;;;9.27;3.10;;;6.80;99.90;;;6.75;89.18;100879.13;4959080;28;20261;-69
2022/12/27 11:52:50;;;;;;;8.93;3.25;;;6.80;99.90;;;6.95;89.46;100892.91;4935809;28;20238;-69
2022/12/27 11:55:26;;;;;;;10.32;3.63;;;6.90;99.90;;;7.14;89.21;100915.38;4929677;28;20229;-68
2022/12/27 11:58:49;;;;;;;9.02;3.10;;;7.10;99.90;;;7.17;88.68;100895.34;4913621;28;20284;-70
2022/12/27 12:01:35;;;;;;;13.13;5.70;;;7.20;99.90;;;7.26;88.97;100902.59;4924112;28;20292;-70
2022/12/27 12:04:48;;;;;;;13.73;6.05;;;7.20;99.90;;;7.13;88.34;100875.06;4905807;28;20233;-69
2022/12/27 12:07:31;;;;;;;8.85;3.08;;;7.20;99.90;;;7.10;88.81;100879.31;4920778;28;20237;-68
2022/12/27 12:10:26;;;;;;;9.27;3.55;;;7.20;99.90;;;6.94;89.97;100899.91;4952513;28;20253;-69
2022/12/27 12:13:08;;;;;;;21.60;6.88;;;7.10;99.90;;;6.75;90.82;100902.78;4931770;28;20312;-68
2022/12/27 12:16:02;;;;;;;10.98;3.70;;;6.90;99.90;;;6.64;91.73;100917.31;4935174;28;20261;-68
2022/12/27 12:19:07;;;;;;;14.00;4.82;;;6.80;99.90;;;6.60;92.67;100921.59;4938117;28;20517;-69
2022/12/27 12:22:32;;;;;;;10.07;3.35;;;6.70;99.90;;;6.60;94.10;100945.25;4927730;28;20229;-70
2022/12/27 12:25:50;;;;;;;10.55;3.63;;;6.70;99.90;;;6.46;94.38;100935.97;4929330;28;20348;-70
2022/12/27 12:28:57;;;;;;;9.98;3.13;;;6.60;99.90;;;6.43;95.30;100951.63;4927096;28;20237;-71
2022/12/27 12:31:44;;;;;;;9.27;2.85;;;6.50;99.90;;;6.38;95.99;100959.38;4943179;28;20238;-71
2022/12/27 12:34:55;;;;;;;8.25;2.83;;;6.50;99.90;;;6.36;96.34;100965.41;4939936;28;20392;-69
2022/12/27 12:37:36;;;;;;;9.57;3.28;;;6.50;99.90;;;6.34;97.73;100970.59;4957364;28;20317;-71
2022/12/27 12:40:28;;;;;;;9.77;3.08;;;6.40;99.90;;;6.33;97.95;100978.44;4944969;28;20229;-69